Time;durP1;ratioP1;P1;durP2;ratioP2;P2;SDS_P1;SDS_P2;PMS_P1;PMS_P2;Temp;Humidity;BMP_temperature;BMP_pressure;BME280_temperature;BME280_humidity;BME280_pressure;Samples;Min_cycle;Max_cycle;Signal;HPM_P1;HPM_P2
2023/03/16 00:02:36;;;;;;;15.55;10.98;;;;;;;7.74;100.00;98085.56;4884619;29;21480;-83
2023/03/16 00:05:20;;;;;;;16.48;10.85;;;;;;;7.77;100.00;98085.16;4885527;29;20044;-82
2023/03/16 00:08:04;;;;;;;18.77;11.00;;;;;;;7.79;100.00;98077.91;4900297;29;20047;-82
2023/03/16 00:10:49;;;;;;;18.27;11.93;;;;;;;7.70;100.00;98073.91;4889205;29;20047;-82
2023/03/16 00:13:33;;;;;;;17.80;11.68;;;;;;;7.86;100.00;98067.47;4890964;29;20396;-83
2023/03/16 00:16:17;;;;;;;17.20;11.90;;;;;;;7.77;100.00;98071.31;4886523;29;20055;-83
2023/03/16 00:19:07;;;;;;;16.40;11.35;;;;;;;7.79;100.00;98057.03;4913700;29;20051;-82
2023/03/16 00:21:52;;;;;;;19.27;12.25;;;;;;;7.86;100.00;98057.84;4909951;29;20062;-82
2023/03/16 00:24:35;;;;;;;16.48;11.80;;;;;;;7.95;100.00;98052.41;4884495;29;20117;-82
2023/03/16 00:27:21;;;;;;;18.67;12.25;;;;;;;7.89;100.00;98045.38;4883836;29;20047;-82
2023/03/16 00:30:06;;;;;;;18.98;12.82;;;;;;;7.96;100.00;98049.59;4888199;29;20441;-82
2023/03/16 00:32:52;;;;;;;19.35;12.73;;;;;;;7.98;100.00;98034.53;4911914;29;20043;-82
2023/03/16 00:35:36;;;;;;;21.85;12.98;;;;;;;8.03;100.00;98027.88;4888037;29;20063;-81
2023/03/16 00:38:20;;;;;;;18.65;11.80;;;;;;;8.09;100.00;98024.44;4886308;29;20059;-83
2023/03/16 00:41:07;;;;;;;18.83;13.05;;;;;;;8.13;100.00;98021.22;4885589;29;20051;-84
2023/03/16 00:43:53;;;;;;;20.35;12.13;;;;;;;8.07;100.00;98011.59;4887370;29;20047;-82
2023/03/16 00:46:38;;;;;;;15.70;11.35;;;;;;;8.15;100.00;98005.31;4887282;29;20047;-82
2023/03/16 00:49:22;;;;;;;18.17;12.05;;;;;;;8.08;100.00;98007.97;4890816;29;20056;-80
2023/03/16 00:52:06;;;;;;;17.25;11.95;;;;;;;8.17;100.00;97992.06;4883726;29;20052;-81
2023/03/16 00:54:53;;;;;;;15.77;10.95;;;;;;;8.10;100.00;97990.28;4883653;29;20577;-80
2023/03/16 00:57:37;;;;;;;16.38;11.25;;;;;;;8.17;100.00;97984.22;4885239;29;20099;-81
2023/03/16 01:00:25;;;;;;;17.00;11.30;;;;;;;7.92;100.00;97984.88;4884813;29;20052;-81
2023/03/16 01:03:09;;;;;;;21.15;11.82;;;;;;;7.79;100.00;97980.47;4887667;29;20131;-80
2023/03/16 01:05:53;;;;;;;17.85;11.50;;;;;;;8.18;100.00;97972.75;4886866;29;20107;-81
2023/03/16 01:08:39;;;;;;;20.50;11.63;;;;;;;8.23;100.00;97972.94;4887357;29;20551;-82
2023/03/16 01:11:23;;;;;;;21.40;12.32;;;;;;;8.31;100.00;97956.22;4890054;29;20058;-83
2023/03/16 01:14:07;;;;;;;17.23;11.77;;;;;;;8.28;100.00;97944.38;4887232;29;20051;-83
2023/03/16 01:16:51;;;;;;;20.40;12.57;;;;;;;8.28;100.00;97939.16;4917741;29;20472;-84
2023/03/16 01:19:36;;;;;;;21.60;12.15;;;;;;;8.36;100.00;97925.84;4904553;29;20048;-82
2023/03/16 01:22:21;;;;;;;22.60;11.68;;;;;;;8.32;100.00;97927.28;4917709;29;20554;-83
2023/03/16 01:25:05;;;;;;;17.60;12.00;;;;;;;8.51;100.00;97916.97;4907377;29;20047;-82
2023/03/16 01:27:49;;;;;;;19.30;12.20;;;;;;;8.38;100.00;97917.81;4914092;29;20111;-83
2023/03/16 01:30:34;;;;;;;18.73;12.30;;;;;;;8.44;100.00;97909.13;4906090;29;20096;-83
2023/03/16 01:33:23;;;;;;;19.00;12.43;;;;;;;8.51;100.00;97903.88;4903320;29;20054;-83
2023/03/16 01:36:13;;;;;;;18.52;11.32;;;;;;;8.49;100.00;97908.50;4900449;29;20043;-82
2023/03/16 01:38:58;;;;;;;18.55;12.05;;;;;;;8.49;100.00;97898.03;4908682;29;20059;-84
2023/03/16 01:41:44;;;;;;;17.20;11.90;;;;;;;8.63;100.00;97885.72;4919596;29;20567;-85
2023/03/16 01:45:00;;;;;;;20.40;12.98;;;;;;;8.49;100.00;97879.72;4904708;29;20051;-84
2023/03/16 01:47:44;;;;;;;19.67;11.93;;;;;;;8.57;100.00;97882.13;4905410;29;20039;-83
2023/03/16 01:50:28;;;;;;;18.63;11.80;;;;;;;8.64;100.00;97874.25;4915607;29;20035;-83
2023/03/16 01:53:12;;;;;;;19.30;11.85;;;;;;;8.61;100.00;97864.97;4905125;29;20044;-82
2023/03/16 01:55:59;;;;;;;20.90;11.98;;;;;;;8.70;100.00;97857.69;4903897;29;20108;-84
2023/03/16 01:58:44;;;;;;;18.05;11.55;;;;;;;8.64;100.00;97861.16;4891456;29;20121;-84
2023/03/16 02:01:29;;;;;;;20.05;12.93;;;;;;;8.69;100.00;97864.75;4907689;29;20407;-82
2023/03/16 02:04:35;;;;;;;16.80;10.98;;;;;;;8.85;100.00;97860.03;4903273;29;20464;-82
2023/03/16 02:07:23;;;;;;;16.75;11.40;;;;;;;8.85;100.00;97855.56;4919529;29;20096;-83
2023/03/16 02:10:10;;;;;;;17.10;10.82;;;;;;;8.95;100.00;97849.09;4902300;29;20043;-82
2023/03/16 02:12:56;;;;;;;17.85;11.15;;;;;;;8.92;100.00;97839.84;4918761;29;20074;-82
2023/03/16 02:15:40;;;;;;;17.73;11.25;;;;;;;8.81;100.00;97845.75;4893813;29;20107;-82
2023/03/16 02:18:25;;;;;;;19.05;10.48;;;;;;;8.87;100.00;97831.81;4901024;29;20518;-82
2023/03/16 02:21:08;;;;;;;19.85;11.50;;;;;;;8.65;100.00;97833.97;4909335;29;20036;-83
2023/03/16 02:23:53;;;;;;;17.17;11.20;;;;;;;8.88;100.00;97827.38;4893186;29;20114;-82
2023/03/16 02:26:47;;;;;;;17.05;10.90;;;;;;;8.93;100.00;97825.72;4893197;29;20067;-84
2023/03/16 02:30:03;;;;;;;18.75;11.10;;;;;;;8.93;100.00;97815.25;4905000;29;20043;-84
2023/03/16 02:32:51;;;;;;;18.98;11.15;;;;;;;8.95;100.00;97818.47;4903756;29;20044;-83
2023/03/16 02:35:36;;;;;;;17.15;10.18;;;;;;;8.94;100.00;97811.63;4903757;29;20047;-84
2023/03/16 02:38:19;;;;;;;16.23;10.15;;;;;;;9.03;100.00;97808.72;4899795;29;20091;-85
2023/03/16 02:41:13;;;;;;;17.77;10.80;;;;;;;9.05;100.00;97801.50;4908539;29;20051;-85
2023/03/16 02:44:03;;;;;;;20.10;11.73;;;;;;;9.12;100.00;97804.84;4893298;29;20067;-82
2023/03/16 02:46:47;;;;;;;19.42;11.27;;;;;;;8.84;100.00;97801.66;4905381;29;20059;-83
2023/03/16 02:49:38;;;;;;;17.90;11.52;;;;;;;9.05;100.00;97796.25;4907400;29;20509;-83
2023/03/16 02:52:25;;;;;;;17.25;11.13;;;;;;;9.03;100.00;97787.78;4919726;29;20047;-83
2023/03/16 02:55:10;;;;;;;20.10;11.25;;;;;;;9.06;100.00;97800.47;4921111;29;20051;-82
2023/03/16 02:57:54;;;;;;;19.00;11.75;;;;;;;9.04;100.00;97799.84;4905073;29;20089;-82
2023/03/16 03:00:38;;;;;;;16.55;10.55;;;;;;;9.28;100.00;97787.75;4910261;29;20582;-83
2023/03/16 03:03:22;;;;;;;16.20;9.90;;;;;;;9.10;100.00;97793.78;4907077;29;20060;-83
2023/03/16 03:06:06;;;;;;;16.92;10.48;;;;;;;9.18;100.00;97785.63;4908553;29;20043;-82
2023/03/16 03:08:50;;;;;;;18.80;10.65;;;;;;;9.22;100.00;97772.94;4907203;29;20043;-83
2023/03/16 03:11:34;;;;;;;15.15;9.63;;;;;;;9.17;100.00;97763.09;4904169;29;20096;-82
2023/03/16 03:14:18;;;;;;;16.23;9.93;;;;;;;9.35;100.00;97769.38;4910465;29;20127;-83
2023/03/16 03:17:06;;;;;;;14.85;9.32;;;;;;;9.26;100.00;97771.47;4890065;29;20085;-83
2023/03/16 03:19:50;;;;;;;13.65;9.23;;;;;;;9.31;100.00;97765.59;4887603;29;20128;-82
2023/03/16 03:22:34;;;;;;;16.13;9.27;;;;;;;9.26;100.00;97776.69;4887256;29;20040;-83
2023/03/16 03:25:20;;;;;;;15.70;10.30;;;;;;;9.47;100.00;97767.63;4919841;29;20044;-82
2023/03/16 03:28:08;;;;;;;13.52;8.65;;;;;;;9.27;100.00;97771.25;4912927;29;20092;-83
2023/03/16 03:30:52;;;;;;;16.42;8.40;;;;;;;9.33;100.00;97764.34;4890233;29;20039;-83
2023/03/16 03:33:36;;;;;;;16.63;8.65;;;;;;;9.54;100.00;97778.03;4887198;29;20151;-83
2023/03/16 03:36:21;;;;;;;14.25;8.30;;;;;;;9.41;100.00;97768.47;4890366;29;20123;-82
2023/03/16 03:39:05;;;;;;;13.40;7.78;;;;;;;9.40;100.00;97767.69;4886662;29;20080;-81
2023/03/16 03:41:49;;;;;;;50.80;12.60;;;;;;;9.54;100.00;97763.09;4913477;29;20063;-82
2023/03/16 03:44:33;;;;;;;15.13;7.68;;;;;;;9.64;100.00;97777.53;4885818;29;20039;-84
2023/03/16 03:47:18;;;;;;;12.55;7.50;;;;;;;9.62;100.00;97769.06;4890572;29;20404;-83
2023/03/16 03:50:05;;;;;;;11.15;7.47;;;;;;;9.51;100.00;97758.31;4887224;29;20051;-83
2023/03/16 03:52:49;;;;;;;10.13;6.85;;;;;;;9.66;100.00;97759.75;4909600;29;20052;-82
2023/03/16 03:55:33;;;;;;;10.40;6.40;;;;;;;9.56;100.00;97755.81;4888307;29;20096;-82
2023/03/16 03:58:17;;;;;;;8.55;6.13;;;;;;;9.64;100.00;97761.81;4888169;29;20128;-84
2023/03/16 04:01:01;;;;;;;12.20;6.68;;;;;;;9.62;100.00;97769.06;4910081;29;20404;-83
2023/03/16 04:03:45;;;;;;;11.68;6.72;;;;;;;9.67;100.00;97769.22;4889309;29;20123;-82
2023/03/16 04:06:30;;;;;;;11.63;7.43;;;;;;;9.74;100.00;97764.69;4888678;29;20564;-83
2023/03/16 04:09:14;;;;;;;13.18;7.85;;;;;;;9.77;100.00;97760.84;4883861;29;20044;-82
2023/03/16 04:12:00;;;;;;;12.55;7.20;;;;;;;9.84;100.00;97756.31;4885996;29;20065;-83
2023/03/16 04:14:44;;;;;;;12.45;7.88;;;;;;;9.86;100.00;97754.25;4918961;29;20108;-82
2023/03/16 04:17:28;;;;;;;12.35;7.40;;;;;;;9.70;100.00;97750.44;4907372;29;20108;-86
2023/03/16 04:20:14;;;;;;;11.07;6.72;;;;;;;9.78;100.00;97746.72;4904221;29;20140;-84
2023/03/16 04:22:58;;;;;;;11.93;7.75;;;;;;;9.81;100.00;97749.69;4908158;29;20051;-83
2023/03/16 04:25:42;;;;;;;13.30;7.45;;;;;;;9.93;100.00;97749.75;4910651;29;20051;-82
2023/03/16 04:28:26;;;;;;;14.52;8.13;;;;;;;9.96;100.00;97748.50;4889431;29;20494;-82
2023/03/16 04:31:10;;;;;;;12.57;8.10;;;;;;;9.86;100.00;97744.59;4893788;29;20112;-83
2023/03/16 04:33:54;;;;;;;14.73;8.23;;;;;;;10.00;100.00;97739.16;4903539;29;20039;-83
2023/03/16 04:36:38;;;;;;;12.48;8.23;;;;;;;9.85;100.00;97727.28;4891280;29;20054;-81
2023/03/16 04:39:22;;;;;;;11.13;7.47;;;;;;;9.83;100.00;97734.56;4891149;29;20046;-82
2023/03/16 04:42:06;;;;;;;10.65;6.80;;;;;;;9.95;100.00;97736.41;4904250;29;20080;-82
2023/03/16 04:44:50;;;;;;;11.15;7.70;;;;;;;9.83;100.00;97737.19;4893969;29;20039;-82
2023/03/16 04:47:36;;;;;;;11.05;6.70;;;;;;;10.02;100.00;97733.69;4891114;29;20055;-82
2023/03/16 04:50:24;;;;;;;10.95;6.47;;;;;;;10.09;100.00;97734.41;4891472;29;20119;-82
2023/03/16 04:53:08;;;;;;;10.70;6.20;;;;;;;10.07;100.00;97734.63;4903104;29;20047;-81
2023/03/16 04:55:52;;;;;;;9.63;6.15;;;;;;;10.11;100.00;97740.22;4905367;29;20103;-81
2023/03/16 04:58:36;;;;;;;10.20;6.20;;;;;;;10.14;100.00;97734.53;4905536;29;20078;-81
2023/03/16 05:01:20;;;;;;;10.23;6.70;;;;;;;10.07;100.00;97734.63;4905576;29;20051;-81
2023/03/16 05:04:04;;;;;;;11.85;7.03;;;;;;;10.19;100.00;97737.28;4908509;29;20570;-82
2023/03/16 05:06:48;;;;;;;14.48;7.80;;;;;;;10.10;100.00;97733.38;4892759;29;20131;-83
2023/03/16 05:09:31;;;;;;;15.20;9.20;;;;;;;10.15;100.00;97734.31;4907087;29;20513;-82
2023/03/16 05:12:16;;;;;;;17.38;9.50;;;;;;;10.25;100.00;97738.22;4890217;29;20143;-81
2023/03/16 05:15:00;;;;;;;16.80;8.82;;;;;;;10.06;100.00;97733.03;4905862;29;20099;-81
2023/03/16 05:17:45;;;;;;;16.02;10.52;;;;;;;10.21;100.00;97716.06;4890390;29;20040;-81
2023/03/16 05:20:30;;;;;;;16.10;9.00;;;;;;;10.30;100.00;97722.59;4887152;29;20044;-83
2023/03/16 05:23:15;;;;;;;19.20;9.65;;;;;;;10.35;100.00;97720.09;4885815;29;20111;-82
2023/03/16 05:25:59;;;;;;;18.88;10.20;;;;;;;10.31;100.00;97708.47;4885155;29;20958;-82
2023/03/16 05:28:44;;;;;;;14.70;9.43;;;;;;;10.49;100.00;97719.94;4883856;29;20048;-82
2023/03/16 05:31:31;;;;;;;15.40;8.77;;;;;;;10.29;100.00;97726.25;4890202;29;20043;-81
2023/03/16 05:34:15;;;;;;;18.17;9.45;;;;;;;10.33;100.00;97724.00;4886637;29;20068;-82
2023/03/16 05:36:59;;;;;;;20.17;9.38;;;;;;;10.39;100.00;97718.63;4882988;29;20044;-81
2023/03/16 05:39:43;;;;;;;15.73;8.38;;;;;;;10.46;100.00;97725.63;4886620;29;20454;-81
2023/03/16 05:42:27;;;;;;;14.40;8.43;;;;;;;10.41;100.00;97707.94;4912134;29;20467;-82
2023/03/16 05:45:13;;;;;;;12.80;7.38;;;;;;;10.31;100.00;97718.97;4888551;29;20043;-82
2023/03/16 05:47:57;;;;;;;18.95;7.38;;;;;;;10.36;100.00;97713.81;4908817;29;20044;-82
2023/03/16 05:50:41;;;;;;;14.70;6.40;;;;;;;10.35;100.00;97714.06;4886319;29;20115;-83
2023/03/16 05:53:27;;;;;;;13.25;6.75;;;;;;;10.34;100.00;97722.97;4883463;29;20060;-81
2023/03/16 05:56:11;;;;;;;12.52;6.15;;;;;;;10.41;100.00;97729.72;4886577;29;20550;-82
2023/03/16 05:58:55;;;;;;;12.20;6.25;;;;;;;10.44;100.00;97723.22;4887036;29;20546;-82
2023/03/16 06:01:39;;;;;;;9.63;6.25;;;;;;;10.21;100.00;97713.44;4886240;29;20452;-82
2023/03/16 06:04:23;;;;;;;11.75;5.97;;;;;;;10.28;100.00;97708.91;4886533;29;20097;-83
2023/03/16 06:07:08;;;;;;;12.00;6.00;;;;;;;10.39;100.00;97708.13;4881830;29;20055;-81
2023/03/16 06:09:52;;;;;;;16.02;6.65;;;;;;;10.43;100.00;97722.44;4885857;29;20036;-82
2023/03/16 06:12:36;;;;;;;11.02;6.03;;;;;;;10.48;100.00;97723.56;4891036;29;20060;-81
2023/03/16 06:15:23;;;;;;;13.45;6.72;;;;;;;10.46;100.00;97709.91;4912550;29;20063;-82
2023/03/16 06:18:08;;;;;;;13.95;5.95;;;;;;;10.30;100.00;97701.63;4892905;29;20100;-81
2023/03/16 06:20:52;;;;;;;11.88;5.60;;;;;;;10.31;100.00;97697.97;4888686;29;20051;-81
2023/03/16 06:23:36;;;;;;;10.73;6.20;;;;;;;10.26;100.00;97705.72;4918031;29;20420;-82
2023/03/16 06:26:20;;;;;;;10.75;5.45;;;;;;;10.32;100.00;97715.31;4893469;29;20120;-81
2023/03/16 06:29:05;;;;;;;11.15;5.60;;;;;;;10.36;100.00;97708.59;4916801;29;20549;-81
2023/03/16 06:31:51;;;;;;;10.40;5.40;;;;;;;10.38;100.00;97706.53;4911518;29;20105;-80
2023/03/16 06:34:39;;;;;;;11.45;5.38;;;;;;;10.49;100.00;97712.06;4891906;29;20505;-81
2023/03/16 06:37:23;;;;;;;10.98;5.70;;;;;;;10.31;100.00;97702.41;4891297;29;20055;-80
2023/03/16 06:40:08;;;;;;;8.57;5.05;;;;;;;10.38;100.00;97698.66;4887221;29;20396;-81
2023/03/16 06:42:52;;;;;;;9.52;5.50;;;;;;;10.29;100.00;97692.16;4890907;29;20056;-79
2023/03/16 06:45:36;;;;;;;6.10;4.50;;;;;;;10.33;100.00;97693.31;4915461;29;20138;-79
2023/03/16 06:48:20;;;;;;;8.70;4.90;;;;;;;10.40;100.00;97688.75;4910770;29;20411;-79
2023/03/16 06:51:06;;;;;;;15.57;5.32;;;;;;;10.49;100.00;97691.06;4897157;29;20036;-79
2023/03/16 06:53:50;;;;;;;11.70;5.20;;;;;;;10.47;100.00;97690.50;4883800;29;20531;-78
2023/03/16 06:56:34;;;;;;;10.15;5.45;;;;;;;10.57;100.00;97681.03;4892715;29;20043;-77
2023/03/16 06:59:18;;;;;;;9.98;6.20;;;;;;;10.51;100.00;97675.91;4912312;29;20096;-77
2023/03/16 07:02:02;;;;;;;11.23;6.82;;;;;;;10.37;100.00;97675.28;4909909;29;20471;-77
2023/03/16 07:04:46;;;;;;;14.57;6.70;;;;;;;10.41;100.00;97682.50;4886237;29;20088;-76
2023/03/16 07:07:30;;;;;;;16.08;7.72;;;;;;;10.26;100.00;97674.25;4886061;29;20555;-77
2023/03/16 07:10:17;;;;;;;18.58;8.65;;;;;;;10.42;100.00;97668.38;4889625;29;20100;-80
2023/03/16 07:13:01;;;;;;;14.73;6.65;;;;;;;10.35;100.00;97662.41;4912919;29;20107;-78
2023/03/16 07:15:45;;;;;;;11.85;5.68;;;;;;;10.35;100.00;97672.88;4886133;29;20517;-80
2023/03/16 07:18:30;;;;;;;10.45;5.50;;;;;;;10.50;100.00;97664.59;4876726;29;20078;-80
2023/03/16 07:21:14;;;;;;;9.20;5.05;;;;;;;10.55;100.00;97661.28;4887253;29;20048;-80
2023/03/16 07:23:59;;;;;;;12.35;5.90;;;;;;;10.69;100.00;97664.47;4890871;29;20071;-80
2023/03/16 07:26:42;;;;;;;14.23;5.93;;;;;;;10.68;100.00;97661.06;4874875;29;20087;-79
2023/03/16 07:29:27;;;;;;;10.05;5.88;;;;;;;10.84;100.00;97666.66;4892174;29;20063;-78
2023/03/16 07:32:11;;;;;;;12.15;5.68;;;;;;;10.91;100.00;97663.91;4887015;29;20084;-79
2023/03/16 07:34:57;;;;;;;12.63;5.60;;;;;;;10.97;100.00;97661.13;4886985;29;20400;-80
2023/03/16 07:37:42;;;;;;;11.05;5.80;;;;;;;10.97;100.00;97666.41;4867630;29;20080;-78
2023/03/16 07:40:26;;;;;;;13.10;5.85;;;;;;;11.01;100.00;97664.13;4890064;29;20096;-79
2023/03/16 07:43:10;;;;;;;16.48;6.25;;;;;;;11.13;100.00;97671.97;4872820;29;20055;-79
2023/03/16 07:45:54;;;;;;;11.38;6.07;;;;;;;11.05;100.00;97674.97;4886236;29;20135;-81
2023/03/16 07:48:42;;;;;;;9.55;6.40;;;;;;;11.16;100.00;97676.75;4885192;29;20060;-81
2023/03/16 07:51:27;;;;;;;13.05;6.60;;;;;;;11.37;100.00;97690.28;4890956;29;20160;-80
2023/03/16 07:54:10;;;;;;;9.82;5.97;;;;;;;11.47;100.00;97698.38;4886986;29;20095;-81
2023/03/16 07:56:54;;;;;;;11.23;5.45;;;;;;;11.35;100.00;97700.22;4886454;29;20044;-81
2023/03/16 07:59:41;;;;;;;10.88;5.07;;;;;;;11.48;100.00;97694.72;4884309;29;20044;-80
2023/03/16 08:02:25;;;;;;;14.55;5.57;;;;;;;11.35;100.00;97698.41;4887815;29;20136;-80
2023/03/16 08:05:10;;;;;;;8.45;5.13;;;;;;;11.57;100.00;97711.69;4872749;29;20052;-80
2023/03/16 08:07:57;;;;;;;13.02;4.60;;;;;;;11.46;100.00;97707.31;4888537;29;20071;-79
2023/03/16 08:10:42;;;;;;;7.00;4.93;;;;;;;11.50;100.00;97703.16;4871550;29;20460;-79
2023/03/16 08:13:27;;;;;;;10.20;5.18;;;;;;;11.34;100.00;97693.38;4883026;29;20096;-83
2023/03/16 08:16:12;;;;;;;9.25;4.90;;;;;;;11.47;100.00;97684.44;4884881;29;20062;-84
2023/03/16 08:18:56;;;;;;;8.32;4.82;;;;;;;11.51;100.00;97699.50;4887132;29;20082;-86
2023/03/16 08:21:41;;;;;;;6.45;4.15;;;;;;;11.53;100.00;97691.41;4889093;29;20568;-87
2023/03/16 08:24:26;;;;;;;7.78;4.88;;;;;;;11.52;100.00;97672.19;4888594;29;20110;-86
2023/03/16 08:27:14;;;;;;;10.40;4.32;;;;;;;11.35;100.00;97676.59;4913384;29;20071;-87
2023/03/16 08:30:04;;;;;;;7.63;4.35;;;;;;;11.47;100.00;97681.81;4910131;29;20849;-86
2023/03/16 08:32:49;;;;;;;9.00;4.57;;;;;;;11.50;100.00;97668.22;4916528;29;20052;-87
2023/03/16 08:35:33;;;;;;;6.43;4.18;;;;;;;11.60;100.00;97678.13;4917160;29;20752;-87
2023/03/16 08:38:18;;;;;;;6.68;3.95;;;;;;;11.63;100.00;97672.41;4884993;29;20059;-88
2023/03/16 08:41:02;;;;;;;7.72;3.35;;;;;;;11.79;100.00;97683.97;4882251;29;20048;-86
2023/03/16 08:43:46;;;;;;;5.40;3.65;;;;;;;12.02;100.00;97688.38;4884410;29;20051;-89
2023/03/16 08:46:30;;;;;;;4.72;3.90;;;;;;;11.98;100.00;97693.25;4884837;29;20048;-86
2023/03/16 08:49:14;;;;;;;4.95;3.55;;;;;;;11.98;100.00;97681.94;4886298;29;20077;-86
2023/03/16 08:51:59;;;;;;;6.80;3.72;;;;;;;12.14;100.00;97685.66;4913497;29;20044;-86
2023/03/16 08:54:43;;;;;;;5.20;3.90;;;;;;;11.66;100.00;97687.69;4888715;29;20099;-87
2023/03/16 08:57:27;;;;;;;3.80;3.50;;;;;;;11.67;100.00;97694.53;4888251;29;20105;-87
2023/03/16 09:00:13;;;;;;;5.55;3.50;;;;;;;11.63;100.00;97696.06;4885784;29;20075;-87
2023/03/16 09:02:57;;;;;;;5.38;4.20;;;;;;;11.49;100.00;97685.00;4909516;29;20147;-87
2023/03/16 09:05:42;;;;;;;6.30;3.95;;;;;;;11.57;100.00;97692.53;4884960;29;20046;-87
2023/03/16 09:08:26;;;;;;;4.20;3.78;;;;;;;11.65;100.00;97683.47;4885586;29;20048;-87
2023/03/16 09:11:13;;;;;;;7.72;4.10;;;;;;;11.66;100.00;97690.31;4882462;29;20148;-88
2023/03/16 09:13:57;;;;;;;6.40;4.35;;;;;;;11.92;100.00;97677.63;4888270;29;20529;-87
2023/03/16 09:16:41;;;;;;;11.88;5.95;;;;;;;11.95;100.00;97677.16;4889323;29;20095;-87
2023/03/16 09:19:25;;;;;;;7.22;5.00;;;;;;;11.90;100.00;97685.75;4906503;29;20119;-88
2023/03/16 09:22:10;;;;;;;12.55;7.93;;;;;;;11.95;100.00;97674.53;4881563;29;20133;-87
2023/03/16 09:24:55;;;;;;;8.77;5.28;;;;;;;11.76;100.00;97685.25;4886459;29;20071;-87
2023/03/16 09:27:39;;;;;;;12.75;4.80;;;;;;;11.79;100.00;97692.69;4883810;29;20115;-86
2023/03/16 09:30:24;;;;;;;8.35;4.60;;;;;;;11.58;100.00;97684.38;4885095;29;20052;-87
2023/03/16 09:33:08;;;;;;;10.57;5.15;;;;;;;11.62;100.00;97684.72;4886327;29;20064;-86
2023/03/16 09:35:52;;;;;;;7.40;4.85;;;;;;;11.80;100.00;97694.28;4885261;29;20563;-86
2023/03/16 09:38:36;;;;;;;12.82;6.70;;;;;;;11.83;100.00;97695.63;4913762;29;20055;-88
2023/03/16 09:41:56;;;;;;;9.18;5.80;;;;;;;11.84;100.00;97697.22;4886031;29;20039;-87
2023/03/16 09:45:01;;;;;;;13.55;6.95;;;;;;;11.63;100.00;97690.78;4912088;29;20056;-86
2023/03/16 09:47:49;;;;;;;17.80;8.20;;;;;;;11.52;100.00;97690.59;4916291;29;20193;-86
2023/03/16 09:50:38;;;;;;;10.25;7.13;;;;;;;11.69;100.00;97698.53;4877958;29;20048;-89
2023/03/16 09:53:38;;;;;;;17.83;6.13;;;;;;;11.64;100.00;97692.38;4895215;29;20527;-86
2023/03/16 09:56:34;;;;;;;10.50;6.85;;;;;;;11.77;100.00;97692.09;4890906;29;20648;-80
2023/03/16 09:59:18;;;;;;;13.57;7.00;;;;;;;11.78;100.00;97687.63;4884073;29;20043;-86
2023/03/16 10:02:24;;;;;;;12.13;7.63;;;;;;;11.80;100.00;97690.81;4909981;29;20064;-84
2023/03/16 10:05:16;;;;;;;11.95;6.80;;;;;;;11.78;100.00;97667.41;4911647;29;20081;-80
2023/03/16 10:08:14;;;;;;;12.77;6.70;;;;;;;11.68;100.00;97680.38;4913407;29;20772;-81
2023/03/16 10:11:19;;;;;;;14.73;7.15;;;;;;;11.64;100.00;97676.63;4884818;29;20040;-81
2023/03/16 10:14:20;;;;;;;9.77;6.68;;;;;;;11.79;100.00;97671.66;4890820;29;20099;-81
2023/03/16 10:17:36;;;;;;;9.68;5.45;;;;;;;11.74;100.00;97671.53;4883875;29;20052;-79
2023/03/16 10:20:22;;;;;;;12.10;6.60;;;;;;;11.58;100.00;97660.75;4885141;29;20052;-84
2023/03/16 10:23:23;;;;;;;12.57;6.38;;;;;;;11.74;100.00;97670.75;4884130;29;20055;-81
2023/03/16 10:26:14;;;;;;;10.80;6.78;;;;;;;11.57;100.00;97659.16;4909109;29;20051;-83
2023/03/16 10:29:00;;;;;;;14.10;6.38;;;;;;;11.55;100.00;97658.59;4886722;29;20116;-83
2023/03/16 10:31:44;;;;;;;10.75;6.53;;;;;;;11.73;100.00;97654.16;4890485;29;20055;-83
2023/03/16 10:34:29;;;;;;;15.88;7.45;;;;;;;11.91;100.00;97652.38;4889690;29;20051;-84
2023/03/16 10:37:13;;;;;;;17.10;7.15;;;;;;;11.98;100.00;97645.13;4883401;29;20056;-83
2023/03/16 10:39:59;;;;;;;19.00;7.75;;;;;;;11.90;100.00;97638.44;4887773;29;20100;-84
2023/03/16 10:42:44;;;;;;;14.93;8.30;;;;;;;12.16;100.00;97630.16;4911493;29;20056;-83
2023/03/16 10:45:30;;;;;;;16.30;7.22;;;;;;;12.06;100.00;97642.13;4888920;29;20060;-83
2023/03/16 10:48:21;;;;;;;16.88;6.63;;;;;;;12.04;100.00;97652.09;4913275;29;20096;-84
2023/03/16 10:51:16;;;;;;;20.13;6.25;;;;;;;11.89;100.00;97631.59;4889994;29;20408;-82
2023/03/16 10:54:15;;;;;;;10.85;5.85;;;;;;;11.80;100.00;97639.06;4912581;29;20051;-82
2023/03/16 10:57:12;;;;;;;18.42;5.72;;;;;;;11.82;100.00;97639.63;4883575;29;20114;-82
2023/03/16 11:00:14;;;;;;;16.17;5.70;;;;;;;11.89;100.00;97630.78;4893473;29;20043;-84
2023/03/16 11:02:58;;;;;;;19.02;10.43;;;;;;;12.04;100.00;97617.09;4886864;29;20189;-83
2023/03/16 11:05:43;;;;;;;18.58;9.68;;;;;;;11.97;100.00;97611.97;4888406;29;20136;-82
2023/03/16 11:08:38;;;;;;;12.75;6.65;;;;;;;12.17;100.00;97605.47;4890879;29;20120;-85
2023/03/16 11:11:31;;;;;;;16.85;7.78;;;;;;;12.27;100.00;97616.16;4887988;29;20040;-84
2023/03/16 11:14:19;;;;;;;13.80;7.18;;;;;;;12.31;100.00;97612.00;4888628;29;20047;-84
2023/03/16 11:17:14;;;;;;;16.33;6.00;;;;;;;12.17;100.00;97602.81;4901030;29;20480;-84
2023/03/16 11:20:11;;;;;;;14.10;4.93;;;;;;;12.51;100.00;97622.03;4921766;29;20039;-82
2023/03/16 11:22:55;;;;;;;20.20;5.35;;;;;;;12.46;100.00;97635.09;4919897;29;20054;-83
2023/03/16 11:25:46;;;;;;;12.38;5.13;;;;;;;12.37;100.00;97644.44;4905272;29;20403;-85
2023/03/16 11:28:37;;;;;;;15.95;5.32;;;;;;;12.45;100.00;97640.63;4888892;29;20043;-86
2023/03/16 11:31:32;;;;;;;13.50;4.90;;;;;;;12.73;100.00;97638.88;4904108;29;20102;-86
2023/03/16 11:34:20;;;;;;;15.40;5.85;;;;;;;12.50;100.00;97638.03;4919048;29;20174;-86
2023/03/16 11:37:20;;;;;;;15.07;4.72;;;;;;;12.57;100.00;97636.03;4903430;29;20119;-86
2023/03/16 11:40:42;;;;;;;14.95;4.30;;;;;;;12.69;100.00;97635.97;4909868;29;20505;-88
2023/03/16 11:43:40;;;;;;;19.08;5.07;;;;;;;12.57;100.00;97630.75;4917910;29;20056;-86
2023/03/16 11:46:32;;;;;;;12.88;4.63;;;;;;;12.59;100.00;97623.44;4910940;29;20348;-88
2023/03/16 11:49:46;;;;;;;16.70;4.93;;;;;;;12.52;100.00;97622.81;4910740;29;20109;-89
2023/03/16 11:52:43;;;;;;;11.38;4.28;;;;;;;12.58;100.00;97613.97;4906703;29;20559;-89
2023/03/16 11:55:38;;;;;;;14.98;4.53;;;;;;;12.91;100.00;97598.31;4919849;29;20051;-89
2023/03/16 11:58:46;;;;;;;13.73;4.53;;;;;;;12.96;100.00;97585.19;4907394;29;20287;-89
2023/03/16 12:01:33;;;;;;;13.48;3.78;;;;;;;13.23;100.00;97568.63;4918088;29;20087;-89
2023/03/16 12:04:26;;;;;;;16.45;4.18;;;;;;;13.60;100.00;97567.16;4911391;29;20085;-87
2023/03/16 12:07:24;;;;;;;11.52;4.28;;;;;;;13.71;100.00;97574.91;4925440;29;20115;-88
2023/03/16 12:10:40;;;;;;;11.23;4.40;;;;;;;14.20;100.00;97572.34;4906224;29;20128;-90
2023/03/16 12:13:37;;;;;;;10.30;4.57;;;;;;;14.17;100.00;97570.22;4907585;29;20059;-89
2023/03/16 12:16:37;;;;;;;9.65;3.10;;;;;;;14.77;100.00;97567.41;4890958;29;20416;-89
2023/03/16 12:19:32;;;;;;;11.18;4.07;;;;;;;14.80;100.00;97569.53;4888939;29;20101;-88
2023/03/16 12:22:21;;;;;;;9.32;3.47;;;;;;;15.12;100.00;97552.69;4912450;29;20153;-90
2023/03/16 12:25:31;;;;;;;10.07;3.13;;;;;;;15.05;100.00;97560.09;4887984;29;20051;-89
2023/03/16 12:28:27;;;;;;;8.07;3.40;;;;;;;15.25;100.00;97572.56;4919202;29;20055;-90
2023/03/16 12:31:17;;;;;;;8.23;3.53;;;;;;;15.01;100.00;97577.53;4893199;29;20502;-90
2023/03/16 12:34:35;;;;;;;7.80;3.20;;;;;;;15.10;100.00;97570.66;4913768;29;20055;-90
2023/03/16 12:37:40;;;;;;;13.77;4.35;;;;;;;15.03;100.00;97593.91;4892367;29;20140;-89
2023/03/16 12:40:43;;;;;;;9.32;3.45;;;;;;;15.65;100.00;97586.91;4890585;29;20109;-89
2023/03/16 12:43:42;;;;;;;8.57;3.80;;;;;;;15.75;100.00;97602.00;4893797;29;20059;-88
2023/03/16 12:46:55;;;;;;;8.80;3.40;;;;;;;15.60;100.00;97613.34;4913756;29;20113;-89
2023/03/16 12:49:40;;;;;;;8.25;3.08;;;;;;;15.35;100.00;97606.16;4889020;29;20043;-84
2023/03/16 12:52:24;;;;;;;7.45;3.20;;;;;;;15.13;100.00;97612.44;4888189;29;20052;-83
2023/03/16 12:55:16;;;;;;;10.32;3.33;;;;;;;14.78;100.00;97611.25;4888843;29;20047;-83